Fremont, North Carolina
Current Conditions -  °F | °C
As of 2:15 AM on Thursday 23 Oct 2014 (Local Time) from KGWW Reporting Station
Clear Clear  
Wind Chill: 49°   Ceiling: Unl
Heat Index: 49°   Visibility: 10mi
Dew Point: 44°   Wind: 3mph
Humidity: 81%   Direction: 320°NW
Pressure: 30"   Gusts: NA
Location:  35.55°N, 77.97°W
Report Text: KGWW 230615Z AUTO 32003KT 10SM CLR 10/07 A3000 RMK AO2 T00970065
Loading
Personal Weather Stations






























Interactive Weather Map
Tropical Storm Tracking
New forecast layout! Learn more

10-Day Weather Forecast

Advertisements
Track Severe Weather on mobile